createdAt,value
2023-01-19T01:04:39.031Z,91353.00
2023-01-19T01:05:38.911Z,91353.00
2023-01-19T01:06:38.826Z,91353.00
2023-01-19T01:07:38.739Z,91353.00
2023-01-19T01:08:38.652Z,91353.00
2023-01-19T01:09:38.559Z,91351.00
2023-01-19T01:10:38.480Z,91353.00
2023-01-19T01:11:38.383Z,91351.00
2023-01-19T01:12:38.304Z,91353.00
2023-01-19T01:13:38.222Z,91355.00
2023-01-19T01:14:38.122Z,91361.00
2023-01-19T01:15:38.595Z,91361.00
2023-01-19T01:16:38.011Z,91364.00
2023-01-19T01:17:37.873Z,91366.00
2023-01-19T01:18:37.783Z,91368.00
2023-01-19T01:19:37.691Z,91372.00
2023-01-19T01:20:37.609Z,91374.00
2023-01-19T01:21:37.523Z,91378.00
2023-01-19T01:22:37.427Z,91378.00
2023-01-19T01:23:37.334Z,91378.00
2023-01-19T01:24:37.237Z,91380.00
2023-01-19T01:25:37.143Z,91384.00
2023-01-19T01:26:37.062Z,91382.00
2023-01-19T01:27:36.975Z,91384.00
2023-01-19T01:28:37.574Z,91388.00
2023-01-19T01:29:36.799Z,91388.00
2023-01-19T01:30:36.693Z,91388.00
2023-01-19T01:31:36.703Z,91388.00
2023-01-19T01:32:36.530Z,91388.00
2023-01-19T01:33:40.060Z,91390.00
2023-01-19T01:34:37.278Z,91390.00
2023-01-19T01:35:36.157Z,91394.00
2023-01-19T01:36:35.991Z,91390.00
2023-01-19T01:37:35.856Z,91394.00
2023-01-19T01:39:35.565Z,91396.00
2023-01-19T03:07:26.709Z,91445.00
2023-01-19T03:09:26.452Z,91447.00
2023-01-19T03:10:26.333Z,91451.00
2023-01-19T03:11:26.190Z,91451.00
2023-01-19T03:12:26.060Z,91453.00
2023-01-19T03:13:25.935Z,91451.00
2023-01-19T03:14:25.817Z,91453.00
2023-01-19T03:15:25.731Z,91455.00
2023-01-19T03:16:25.645Z,91457.00
2023-01-19T03:20:25.622Z,91455.00
2023-01-19T03:59:19.969Z,91468.00
2023-01-19T04:00:19.820Z,91468.00
2023-01-19T04:01:19.821Z,91470.00
2023-01-19T04:02:19.582Z,91470.00
2023-01-19T04:03:19.424Z,91472.00
2023-01-19T04:04:20.128Z,91470.00
2023-01-19T04:05:19.194Z,91472.00
2023-01-19T04:06:19.056Z,91474.00
2023-01-19T04:07:18.928Z,91476.00
2023-01-19T04:08:18.802Z,91474.00
2023-01-19T04:09:20.126Z,91480.00
2023-01-19T04:10:18.548Z,91480.00
2023-01-19T04:11:18.423Z,91482.00
2023-01-19T04:12:19.132Z,91484.00
2023-01-19T04:13:18.194Z,91486.00
2023-01-19T04:14:18.154Z,91484.00
2023-01-19T04:15:17.964Z,91486.00
2023-01-19T04:16:17.896Z,91482.00
2023-01-19T04:17:17.730Z,91482.00
2023-01-19T04:18:17.597Z,91484.00
2023-01-19T04:19:17.481Z,91482.00
2023-01-19T04:20:17.356Z,91482.00
2023-01-19T04:21:17.242Z,91480.00
2023-01-19T04:22:17.109Z,91482.00
2023-01-19T04:23:17.637Z,91482.00
2023-01-19T04:24:16.851Z,91482.00
2023-01-19T04:25:16.732Z,91484.00
2023-01-19T04:26:16.604Z,91488.00
2023-01-19T04:27:16.473Z,91486.00
2023-01-19T04:28:16.342Z,91484.00
2023-01-19T04:29:16.202Z,91484.00
2023-01-19T04:30:16.081Z,91484.00
2023-01-19T04:31:15.984Z,91482.00
2023-01-19T04:32:15.841Z,91482.00
2023-01-19T04:33:15.705Z,91486.00
2023-01-19T04:34:15.625Z,91482.00
2023-01-19T04:39:15.644Z,91490.00
2023-01-19T05:32:08.269Z,91523.00
2023-01-19T05:33:08.144Z,91521.00
2023-01-19T05:34:08.006Z,91523.00
2023-01-19T05:35:07.891Z,91523.00
2023-01-19T05:36:07.769Z,91519.00
2023-01-19T05:37:07.630Z,91519.00
2023-01-19T05:38:07.508Z,91521.00
2023-01-19T05:39:07.368Z,91517.00
2023-01-19T05:40:07.243Z,91519.00
2023-01-19T05:41:07.143Z,91523.00
2023-01-19T05:42:06.986Z,91521.00
2023-01-19T05:43:06.864Z,91523.00
2023-01-19T05:44:06.718Z,91523.00
2023-01-19T05:45:06.601Z,91525.00
2023-01-19T05:46:06.480Z,91525.00
2023-01-19T05:47:06.352Z,91525.00
2023-01-19T05:48:06.981Z,91527.00
2023-01-19T05:49:06.160Z,91527.00
2023-01-19T05:50:05.973Z,91529.00
2023-01-19T05:51:05.861Z,91529.00
2023-01-19T05:52:05.729Z,91533.00
2023-01-19T05:53:05.614Z,91533.00
2023-01-19T06:29:01.130Z,91578.00
2023-01-19T06:30:01.143Z,91580.00
2023-01-19T06:31:00.928Z,91580.00
2023-01-19T06:32:00.747Z,91588.00
2023-01-19T06:33:01.006Z,91588.00
2023-01-19T06:35:07.184Z,91588.00
2023-01-19T06:36:07.152Z,91590.00
2023-01-19T06:37:07.867Z,91592.00
2023-01-19T06:38:07.076Z,91590.00
2023-01-19T06:39:09.880Z,91590.00
2023-01-19T06:40:06.984Z,91588.00
2023-01-19T06:41:06.927Z,91592.00
2023-01-19T06:42:06.895Z,91594.00
2023-01-19T06:43:06.830Z,91596.00
2023-01-19T06:44:06.788Z,91594.00
2023-01-19T06:45:06.738Z,91594.00
2023-01-19T06:46:06.689Z,91592.00
2023-01-19T06:47:15.671Z,91594.00
2023-01-19T06:48:07.583Z,91597.00
2023-01-19T06:49:06.535Z,91594.00
2023-01-19T06:50:06.482Z,91599.00
2023-01-19T06:51:06.428Z,91597.00
2023-01-19T06:52:06.362Z,91601.00
2023-01-19T06:53:06.314Z,91601.00
2023-01-19T06:54:06.278Z,91605.00
2023-01-19T06:55:06.887Z,91605.00
2023-01-19T06:56:06.180Z,91609.00
2023-01-19T06:57:06.119Z,91609.00
2023-01-19T06:58:06.090Z,91611.00
2023-01-19T06:59:06.009Z,91609.00
2023-01-19T07:00:05.950Z,91611.00
2023-01-19T07:01:06.063Z,91611.00
2023-01-19T07:02:26.929Z,91609.00
2023-01-19T07:03:06.831Z,91611.00
2023-01-19T07:04:05.709Z,91615.00
2023-01-19T07:05:05.655Z,91615.00
2023-01-19T07:06:05.618Z,91617.00
2023-01-19T07:07:05.527Z,91617.00
2023-01-19T07:14:05.883Z,91623.00
2023-01-19T07:28:05.546Z,91625.00
2023-01-19T12:53:59.478Z,91668.00
2023-01-19T12:54:59.430Z,91668.00
2023-01-19T12:55:59.402Z,91666.00
2023-01-19T12:56:59.360Z,91670.00
2023-01-19T12:57:59.355Z,91666.00
2023-01-19T12:58:59.328Z,91668.00
2023-01-19T12:59:59.274Z,91668.00
2023-01-19T13:00:59.329Z,91664.00
2023-01-19T13:09:58.860Z,91658.00
2023-01-19T13:10:58.853Z,91664.00
2023-01-19T13:12:01.018Z,91662.00
2023-01-19T13:12:58.860Z,91662.00
2023-01-19T13:20:58.864Z,91660.00
2023-01-19T13:21:58.845Z,91662.00
2023-01-19T14:03:59.278Z,91682.00
2023-01-19T14:04:59.337Z,91682.00
2023-01-19T14:05:59.276Z,91682.00
2023-01-19T14:06:59.282Z,91682.00
2023-01-19T14:07:59.323Z,91682.00
2023-01-19T14:08:59.233Z,91686.00
2023-01-19T14:09:59.217Z,91684.00
2023-01-19T14:10:59.211Z,91686.00
2023-01-19T14:12:59.769Z,91688.00
2023-01-19T14:13:59.095Z,91688.00
2023-01-19T14:14:59.082Z,91688.00
2023-01-19T14:15:59.042Z,91688.00
2023-01-19T14:16:58.957Z,91690.00
2023-01-19T14:17:58.919Z,91690.00
2023-01-19T14:18:58.993Z,91694.00
2023-01-19T14:19:58.928Z,91694.00
2023-01-19T14:20:58.794Z,91696.00
2023-01-19T14:21:58.848Z,91696.00
2023-01-19T14:22:58.723Z,91696.00
2023-01-19T14:23:58.697Z,91696.00
2023-01-19T14:24:58.665Z,91698.00
2023-01-19T14:25:58.630Z,91696.00
2023-01-19T14:26:58.593Z,91699.00
2023-01-19T14:27:58.541Z,91698.00
2023-01-19T14:28:58.504Z,91698.00
2023-01-19T14:29:58.471Z,91696.00
2023-01-19T14:30:58.552Z,91699.00
2023-01-19T14:31:58.403Z,91699.00
2023-01-19T14:32:58.328Z,91698.00
2023-01-19T14:33:58.316Z,91701.00
2023-01-19T14:34:58.312Z,91703.00
2023-01-19T14:35:58.209Z,91701.00
2023-01-19T14:36:58.178Z,91703.00
2023-01-19T14:37:58.125Z,91701.00
2023-01-19T14:38:58.149Z,91701.00
2023-01-19T14:39:58.107Z,91705.00
2023-01-19T14:40:57.993Z,91705.00
2023-01-19T14:41:57.947Z,91705.00
2023-01-19T14:42:57.935Z,91707.00
2023-01-19T14:43:57.890Z,91707.00
2023-01-19T14:44:57.829Z,91705.00
2023-01-19T14:45:57.815Z,91707.00
2023-01-19T14:46:57.754Z,91709.00
2023-01-19T14:47:57.805Z,91711.00
2023-01-19T14:48:57.681Z,91711.00
2023-01-19T14:49:57.642Z,91709.00
2023-01-19T14:51:03.131Z,91711.00
2023-01-19T14:51:58.540Z,91711.00
2023-01-19T14:52:57.564Z,91715.00
2023-01-19T14:53:58.894Z,91711.00
2023-01-19T14:54:57.425Z,91711.00
2023-01-19T14:55:57.389Z,91713.00
2023-01-19T14:56:57.340Z,91715.00
2023-01-19T14:57:57.281Z,91717.00
2023-01-19T14:58:57.270Z,91717.00
2023-01-19T14:59:57.186Z,91723.00
2023-01-19T15:00:57.212Z,91723.00
2023-01-19T15:01:57.308Z,91723.00
2023-01-19T15:02:57.061Z,91727.00
2023-01-19T15:03:57.090Z,91727.00
2023-01-19T15:04:56.961Z,91727.00
2023-01-19T15:05:56.903Z,91727.00
2023-01-19T15:06:56.858Z,91727.00
2023-01-19T15:07:56.801Z,91727.00
2023-01-19T15:08:56.775Z,91729.00
2023-01-19T15:09:56.714Z,91733.00
2023-01-19T15:10:56.660Z,91729.00
2023-01-19T15:11:56.612Z,91729.00
2023-01-19T15:12:56.588Z,91733.00
2023-01-19T15:13:56.533Z,91733.00
2023-01-19T15:14:56.515Z,91737.00
2023-01-19T15:15:56.462Z,91741.00
2023-01-19T15:16:56.368Z,91743.00
2023-01-19T15:17:56.494Z,91743.00
2023-01-19T15:18:56.271Z,91745.00
2023-01-19T15:19:56.257Z,91741.00
2023-01-19T15:20:56.199Z,91743.00
2023-01-19T15:21:56.128Z,91747.00
2023-01-19T15:22:56.078Z,91745.00
2023-01-19T15:23:56.070Z,91741.00
2023-01-19T15:24:55.974Z,91745.00
2023-01-19T15:25:55.932Z,91743.00
2023-01-19T15:26:55.883Z,91743.00
2023-01-19T15:27:55.843Z,91745.00
2023-01-19T15:28:55.795Z,91749.00
2023-01-19T15:29:55.732Z,91751.00
2023-01-19T15:30:55.718Z,91751.00
2023-01-19T15:31:55.658Z,91753.00
2023-01-19T15:32:55.590Z,91753.00
2023-01-19T15:33:55.545Z,91753.00
2023-01-19T15:41:56.069Z,91754.00
2023-01-19T15:48:55.558Z,91754.00
2023-01-19T16:12:53.656Z,91762.00
2023-01-19T16:13:53.604Z,91762.00
2023-01-19T16:14:53.626Z,91762.00
2023-01-19T16:15:53.510Z,91760.00
2023-01-19T16:16:53.531Z,91762.00
2023-01-19T16:17:53.417Z,91764.00
2023-01-19T16:18:53.371Z,91764.00
2023-01-19T16:19:53.329Z,91764.00
2023-01-19T16:20:53.296Z,91764.00
2023-01-19T16:21:53.243Z,91760.00
2023-01-19T16:22:54.981Z,91758.00
2023-01-19T16:23:53.174Z,91760.00
2023-01-19T16:24:53.218Z,91760.00
2023-01-19T16:25:53.084Z,91760.00
2023-01-19T16:26:53.023Z,91760.00
2023-01-19T16:27:52.975Z,91758.00
2023-01-19T16:28:52.930Z,91758.00
2023-01-19T16:29:52.887Z,91760.00
2023-01-19T16:30:52.875Z,91760.00
2023-01-19T16:31:52.838Z,91760.00
2023-01-19T16:32:52.742Z,91762.00
2023-01-19T16:33:52.709Z,91764.00
2023-01-19T16:34:52.640Z,91764.00
2023-01-19T16:35:52.622Z,91766.00
2023-01-19T16:36:52.577Z,91766.00
2023-01-19T16:37:52.527Z,91766.00
2023-01-19T16:38:52.489Z,91766.00
2023-01-19T16:39:52.470Z,91762.00
2023-01-19T16:40:52.503Z,91764.00
2023-01-19T16:41:52.369Z,91764.00
2023-01-19T16:42:52.333Z,91762.00
2023-01-19T16:43:52.284Z,91764.00
2023-01-19T16:44:52.243Z,91762.00
2023-01-19T16:45:52.229Z,91764.00
2023-01-19T16:46:52.235Z,91764.00
2023-01-19T16:47:52.145Z,91762.00
2023-01-19T16:48:52.104Z,91764.00
2023-01-19T16:49:52.067Z,91762.00
2023-01-19T16:50:52.024Z,91762.00
2023-01-19T16:51:51.949Z,91764.00
2023-01-19T16:52:51.919Z,91764.00
2023-01-19T16:53:51.860Z,91764.00
2023-01-19T16:54:51.841Z,91762.00
2023-01-19T16:55:51.777Z,91764.00
2023-01-19T16:56:51.735Z,91762.00
2023-01-19T16:57:51.697Z,91764.00
2023-01-19T16:58:51.649Z,91764.00
2023-01-19T16:59:51.609Z,91764.00
2023-01-19T17:00:51.632Z,91764.00
2023-01-19T17:01:51.625Z,91760.00
2023-01-19T17:02:51.487Z,91762.00
2023-01-19T17:03:51.423Z,91760.00
2023-01-19T17:04:51.378Z,91760.00
2023-01-19T17:05:51.422Z,91762.00
2023-01-19T17:06:51.292Z,91762.00
2023-01-19T17:07:51.282Z,91762.00
2023-01-19T17:08:51.213Z,91760.00
2023-01-19T17:09:51.204Z,91760.00
2023-01-19T17:10:51.151Z,91760.00
2023-01-19T17:11:51.086Z,91760.00
2023-01-19T17:12:51.027Z,91758.00
2023-01-19T17:13:51.046Z,91760.00
2023-01-19T17:14:50.942Z,91760.00
2023-01-19T17:15:50.889Z,91760.00
2023-01-19T17:16:50.934Z,91762.00
2023-01-19T17:17:50.814Z,91762.00
2023-01-19T17:18:50.767Z,91762.00
2023-01-19T17:19:50.736Z,91764.00
2023-01-19T17:20:50.684Z,91762.00
2023-01-19T17:21:50.647Z,91762.00
2023-01-19T17:22:50.606Z,91764.00
2023-01-19T17:23:50.566Z,91764.00
2023-01-19T17:24:50.514Z,91764.00
2023-01-19T17:25:50.488Z,91762.00
2023-01-19T17:26:50.453Z,91764.00
2023-01-19T17:27:50.407Z,91764.00
2023-01-19T17:28:50.599Z,91760.00
2023-01-19T17:29:50.375Z,91758.00
2023-01-19T17:30:50.368Z,91760.00
2023-01-19T17:31:50.247Z,91760.00
2023-01-19T17:32:50.213Z,91756.00
2023-01-19T17:33:50.164Z,91758.00
2023-01-19T17:34:50.125Z,91758.00
2023-01-19T17:35:50.094Z,91758.00
2023-01-19T17:36:50.038Z,91758.00
2023-01-19T17:37:50.000Z,91758.00
2023-01-19T17:38:49.960Z,91760.00
2023-01-19T17:39:49.930Z,91758.00
2023-01-19T17:40:49.889Z,91762.00
2023-01-19T17:41:50.396Z,91760.00
2023-01-19T17:42:50.121Z,91760.00
2023-01-19T17:43:49.770Z,91764.00
2023-01-19T17:44:50.627Z,91764.00
2023-01-19T17:45:49.697Z,91766.00
2023-01-19T17:46:49.672Z,91766.00
2023-01-19T17:47:49.604Z,91768.00
2023-01-19T17:48:49.562Z,91768.00
2023-01-19T17:49:49.534Z,91766.00
2023-01-19T17:50:49.491Z,91770.00
2023-01-19T17:51:49.499Z,91768.00
2023-01-19T17:52:49.399Z,91768.00
2023-01-19T17:53:49.358Z,91766.00
2023-01-19T17:54:49.323Z,91768.00
2023-01-19T17:55:50.119Z,91768.00
2023-01-19T17:56:49.622Z,91768.00
2023-01-19T17:57:49.180Z,91770.00
2023-01-19T17:58:49.206Z,91770.00
2023-01-19T17:59:49.082Z,91772.00
2023-01-19T18:00:49.110Z,91772.00
2023-01-19T18:01:49.095Z,91776.00
2023-01-19T18:02:49.008Z,91776.00
2023-01-19T18:03:48.905Z,91778.00
2023-01-19T18:04:48.872Z,91780.00
2023-01-19T18:05:48.876Z,91776.00
2023-01-19T18:06:48.774Z,91778.00
2023-01-19T18:07:48.729Z,91780.00
2023-01-19T18:08:48.684Z,91782.00
2023-01-19T18:09:48.642Z,91782.00
2023-01-19T18:10:48.585Z,91782.00
2023-01-19T18:11:48.539Z,91784.00
2023-01-19T18:12:48.489Z,91784.00
2023-01-19T18:13:48.475Z,91784.00
2023-01-19T18:14:48.407Z,91784.00
2023-01-19T18:15:48.384Z,91784.00
2023-01-19T18:16:48.332Z,91784.00
2023-01-19T18:17:48.279Z,91784.00
2023-01-19T18:18:48.232Z,91786.00
2023-01-19T18:19:48.197Z,91788.00
2023-01-19T18:20:48.140Z,91786.00
2023-01-19T18:21:48.086Z,91790.00
2023-01-19T18:22:48.043Z,91790.00
2023-01-19T18:23:47.997Z,91790.00
2023-01-19T18:24:47.945Z,91790.00
2023-01-19T18:25:47.904Z,91786.00
2023-01-19T18:26:48.683Z,91788.00
2023-01-19T18:27:47.912Z,91790.00
2023-01-19T18:28:47.781Z,91790.00
2023-01-19T18:29:47.733Z,91790.00
2023-01-19T18:30:47.830Z,91790.00
2023-01-19T18:31:47.653Z,91790.00
2023-01-19T18:32:47.651Z,91790.00
2023-01-19T18:33:47.597Z,91788.00
2023-01-19T18:34:47.567Z,91786.00
2023-01-19T18:35:47.608Z,91786.00
2023-01-19T18:36:48.127Z,91786.00
2023-01-19T18:37:47.487Z,91786.00
2023-01-19T18:38:47.466Z,91788.00
2023-01-19T18:39:47.438Z,91784.00
2023-01-19T18:40:47.419Z,91786.00
2023-01-19T18:41:47.399Z,91782.00
2023-01-19T18:42:47.370Z,91784.00
2023-01-19T18:43:47.369Z,91784.00
2023-01-19T18:44:47.316Z,91780.00
2023-01-19T18:45:47.288Z,91782.00
2023-01-19T18:46:47.265Z,91780.00
2023-01-19T18:47:47.316Z,91780.00
2023-01-19T18:48:47.228Z,91782.00
2023-01-19T18:49:47.196Z,91782.00
2023-01-19T18:50:47.183Z,91782.00
2023-01-19T18:51:47.165Z,91782.00
2023-01-19T18:52:47.212Z,91778.00
2023-01-19T18:53:47.106Z,91782.00
2023-01-19T18:54:47.088Z,91782.00
2023-01-19T18:55:47.052Z,91780.00
2023-01-19T18:56:47.041Z,91774.00
2023-01-19T18:57:47.078Z,91778.00
2023-01-19T18:58:47.083Z,91774.00
2023-01-19T18:59:46.984Z,91778.00
2023-01-19T19:00:46.961Z,91778.00
2023-01-19T19:01:47.010Z,91778.00
2023-01-19T19:02:46.929Z,91770.00
2023-01-19T19:03:46.923Z,91774.00
2023-01-19T19:04:46.912Z,91772.00
2023-01-19T19:05:47.935Z,91768.00
2023-01-19T19:06:46.822Z,91772.00
2023-01-19T19:07:46.799Z,91768.00
2023-01-19T19:08:46.778Z,91766.00
2023-01-19T19:09:46.708Z,91768.00
2023-01-19T19:10:46.656Z,91774.00
2023-01-19T19:11:46.645Z,91774.00
2023-01-19T19:12:46.566Z,91768.00
2023-01-19T19:13:46.529Z,91766.00
2023-01-19T19:14:46.470Z,91772.00
2023-01-19T19:15:46.521Z,91766.00
2023-01-19T19:16:46.389Z,91762.00
2023-01-19T19:17:46.350Z,91762.00
2023-01-19T19:18:46.313Z,91760.00
2023-01-19T19:19:46.303Z,91760.00
2023-01-19T19:20:46.216Z,91762.00
2023-01-19T19:21:46.164Z,91762.00
2023-01-19T19:22:46.113Z,91760.00
2023-01-19T19:23:46.074Z,91760.00
2023-01-19T19:24:46.027Z,91760.00
2023-01-19T19:25:45.974Z,91756.00
2023-01-19T19:26:45.940Z,91758.00
2023-01-19T19:27:45.881Z,91756.00
2023-01-19T19:28:45.858Z,91758.00
2023-01-19T19:29:45.835Z,91758.00
2023-01-19T19:30:45.876Z,91760.00
2023-01-19T19:31:45.909Z,91760.00
2023-01-19T19:32:46.651Z,91760.00
2023-01-19T19:33:45.751Z,91764.00
2023-01-19T19:34:45.715Z,91764.00
2023-01-19T19:35:45.732Z,91764.00
2023-01-19T19:36:46.642Z,91766.00
2023-01-19T19:37:45.675Z,91764.00
2023-01-19T19:38:45.660Z,91764.00
2023-01-19T19:39:45.652Z,91762.00
2023-01-19T19:40:45.625Z,91760.00
2023-01-19T19:41:46.161Z,91762.00
2023-01-19T19:42:45.626Z,91762.00
2023-01-19T19:43:45.565Z,91762.00
2023-01-19T19:44:45.553Z,91762.00
2023-01-19T19:45:45.528Z,91762.00
2023-01-19T19:46:45.567Z,91760.00
2023-01-19T19:47:45.484Z,91762.00
2023-01-19T19:48:45.472Z,91762.00
2023-01-19T19:49:45.464Z,91762.00
2023-01-19T19:50:45.436Z,91764.00
2023-01-19T19:51:45.417Z,91762.00
2023-01-19T19:53:45.389Z,91764.00
2023-01-19T19:54:45.361Z,91764.00
2023-01-19T19:55:45.351Z,91762.00
2023-01-19T19:56:45.324Z,91760.00
2023-01-19T19:57:45.307Z,91762.00
2023-01-19T19:58:45.282Z,91760.00
2023-01-19T19:59:45.261Z,91764.00
2023-01-19T20:05:45.665Z,91762.00
2023-01-19T22:56:41.566Z,91813.00
2023-01-19T22:57:41.547Z,91813.00
2023-01-19T22:58:41.544Z,91813.00
2023-01-19T22:59:41.588Z,91815.00
2023-01-19T23:00:41.591Z,91817.00
2023-01-19T23:01:41.574Z,91817.00
2023-01-19T23:02:41.502Z,91817.00
2023-01-19T23:03:41.489Z,91819.00
2023-01-19T23:04:41.464Z,91819.00
2023-01-19T23:05:41.488Z,91821.00
2023-01-19T23:07:41.433Z,91825.00
2023-01-19T23:09:41.427Z,91825.00
